sensor_id;sensor_type;location;lat;lon;timestamp;temperature;humidity
31038;DHT22;17702;47.590;7.666;2022-08-21T00:00:56;18.70;94.20
31038;DHT22;17702;47.590;7.666;2022-08-21T00:03:21;18.60;94.60
31038;DHT22;17702;47.590;7.666;2022-08-21T00:05:49;18.50;94.40
31038;DHT22;17702;47.590;7.666;2022-08-21T00:08:19;18.50;94.40
31038;DHT22;17702;47.590;7.666;2022-08-21T00:10:46;18.60;93.80
31038;DHT22;17702;47.590;7.666;2022-08-21T00:13:13;18.60;93.80
31038;DHT22;17702;47.590;7.666;2022-08-21T00:15:41;18.60;94.20
31038;DHT22;17702;47.590;7.666;2022-08-21T00:18:08;18.40;94.30
31038;DHT22;17702;47.590;7.666;2022-08-21T00:20:34;18.30;94.50
31038;DHT22;17702;47.590;7.666;2022-08-21T00:23:00;18.40;94.70
31038;DHT22;17702;47.590;7.666;2022-08-21T00:25:27;18.30;94.50
31038;DHT22;17702;47.590;7.666;2022-08-21T00:27:53;18.40;94.30
31038;DHT22;17702;47.590;7.666;2022-08-21T00:30:21;18.40;94.40
31038;DHT22;17702;47.590;7.666;2022-08-21T00:32:47;18.30;94.80
31038;DHT22;17702;47.590;7.666;2022-08-21T00:35:17;18.10;94.80
31038;DHT22;17702;47.590;7.666;2022-08-21T00:37:43;18.20;94.70
31038;DHT22;17702;47.590;7.666;2022-08-21T00:40:12;18.10;94.60
31038;DHT22;17702;47.590;7.666;2022-08-21T00:42:38;18.30;94.10
31038;DHT22;17702;47.590;7.666;2022-08-21T00:45:05;18.30;93.80
31038;DHT22;17702;47.590;7.666;2022-08-21T00:47:31;18.20;94.70
31038;DHT22;17702;47.590;7.666;2022-08-21T00:49:57;18.10;94.40
31038;DHT22;17702;47.590;7.666;2022-08-21T00:52:27;18.20;94.20
31038;DHT22;17702;47.590;7.666;2022-08-21T00:54:54;18.10;94.50
31038;DHT22;17702;47.590;7.666;2022-08-21T00:57:26;18.10;94.40
31038;DHT22;17702;47.590;7.666;2022-08-21T00:59:54;18.20;94.10
31038;DHT22;17702;47.590;7.666;2022-08-21T01:02:21;18.20;93.60
31038;DHT22;17702;47.590;7.666;2022-08-21T01:04:47;18.20;93.80
31038;DHT22;17702;47.590;7.666;2022-08-21T01:07:13;18.20;93.60
31038;DHT22;17702;47.590;7.666;2022-08-21T01:09:39;18.20;93.90
31038;DHT22;17702;47.590;7.666;2022-08-21T01:12:06;18.10;93.70
31038;DHT22;17702;47.590;7.666;2022-08-21T01:14:32;18.10;94.00
31038;DHT22;17702;47.590;7.666;2022-08-21T01:16:59;18.00;94.50
31038;DHT22;17702;47.590;7.666;2022-08-21T01:19:26;18.00;94.20
31038;DHT22;17702;47.590;7.666;2022-08-21T01:21:53;18.00;94.10
31038;DHT22;17702;47.590;7.666;2022-08-21T01:24:19;18.00;94.00
31038;DHT22;17702;47.590;7.666;2022-08-21T01:26:45;18.00;93.90
31038;DHT22;17702;47.590;7.666;2022-08-21T01:31:36;17.90;94.10
31038;DHT22;17702;47.590;7.666;2022-08-21T01:34:04;17.90;93.70
31038;DHT22;17702;47.590;7.666;2022-08-21T01:36:29;17.90;93.70
31038;DHT22;17702;47.590;7.666;2022-08-21T01:38:55;18.00;93.90
31038;DHT22;17702;47.590;7.666;2022-08-21T01:41:22;18.00;93.90
31038;DHT22;17702;47.590;7.666;2022-08-21T01:43:48;18.00;93.00
31038;DHT22;17702;47.590;7.666;2022-08-21T01:46:13;18.00;93.50
31038;DHT22;17702;47.590;7.666;2022-08-21T01:48:40;17.90;92.90
31038;DHT22;17702;47.590;7.666;2022-08-21T01:51:06;17.80;93.70
31038;DHT22;17702;47.590;7.666;2022-08-21T01:53:33;17.70;94.00
31038;DHT22;17702;47.590;7.666;2022-08-21T01:56:01;17.80;93.60
31038;DHT22;17702;47.590;7.666;2022-08-21T01:58:28;17.70;93.60
31038;DHT22;17702;47.590;7.666;2022-08-21T02:00:54;17.70;93.70
31038;DHT22;17702;47.590;7.666;2022-08-21T02:03:19;17.70;94.10
31038;DHT22;17702;47.590;7.666;2022-08-21T02:05:45;17.70;93.50
31038;DHT22;17702;47.590;7.666;2022-08-21T02:08:11;17.80;93.60
31038;DHT22;17702;47.590;7.666;2022-08-21T02:10:36;17.70;93.70
31038;DHT22;17702;47.590;7.666;2022-08-21T02:13:03;17.70;93.60
31038;DHT22;17702;47.590;7.666;2022-08-21T02:15:29;17.70;93.20
31038;DHT22;17702;47.590;7.666;2022-08-21T02:17:58;17.70;93.60
31038;DHT22;17702;47.590;7.666;2022-08-21T02:20:34;17.70;93.80
31038;DHT22;17702;47.590;7.666;2022-08-21T02:23:00;17.70;93.40
31038;DHT22;17702;47.590;7.666;2022-08-21T02:25:27;17.70;93.70
31038;DHT22;17702;47.590;7.666;2022-08-21T02:27:54;17.80;93.30
31038;DHT22;17702;47.590;7.666;2022-08-21T02:30:34;17.80;93.50
31038;DHT22;17702;47.590;7.666;2022-08-21T02:33:00;17.80;93.60
31038;DHT22;17702;47.590;7.666;2022-08-21T02:35:26;17.70;93.40
31038;DHT22;17702;47.590;7.666;2022-08-21T02:37:56;17.80;93.30
31038;DHT22;17702;47.590;7.666;2022-08-21T02:40:25;17.70;93.70
31038;DHT22;17702;47.590;7.666;2022-08-21T02:42:51;17.60;93.60
31038;DHT22;17702;47.590;7.666;2022-08-21T02:45:18;17.60;93.30
31038;DHT22;17702;47.590;7.666;2022-08-21T02:47:51;17.60;93.30
31038;DHT22;17702;47.590;7.666;2022-08-21T02:50:40;17.50;93.70
31038;DHT22;17702;47.590;7.666;2022-08-21T02:53:08;17.50;93.70
31038;DHT22;17702;47.590;7.666;2022-08-21T02:55:35;17.50;93.80
31038;DHT22;17702;47.590;7.666;2022-08-21T02:58:02;17.50;93.40
31038;DHT22;17702;47.590;7.666;2022-08-21T03:00:29;17.60;93.30
31038;DHT22;17702;47.590;7.666;2022-08-21T03:02:55;17.50;93.00
31038;DHT22;17702;47.590;7.666;2022-08-21T03:05:22;17.50;93.20
31038;DHT22;17702;47.590;7.666;2022-08-21T03:07:47;17.60;93.80
31038;DHT22;17702;47.590;7.666;2022-08-21T03:10:15;17.50;93.60
31038;DHT22;17702;47.590;7.666;2022-08-21T03:12:41;17.50;93.70
31038;DHT22;17702;47.590;7.666;2022-08-21T03:15:10;17.50;93.50
31038;DHT22;17702;47.590;7.666;2022-08-21T03:17:36;17.50;93.40
31038;DHT22;17702;47.590;7.666;2022-08-21T03:20:04;17.40;93.40
31038;DHT22;17702;47.590;7.666;2022-08-21T03:22:30;17.30;94.30
31038;DHT22;17702;47.590;7.666;2022-08-21T03:24:56;17.40;94.10
31038;DHT22;17702;47.590;7.666;2022-08-21T03:27:22;17.40;94.20
31038;DHT22;17702;47.590;7.666;2022-08-21T03:29:49;17.40;93.70
31038;DHT22;17702;47.590;7.666;2022-08-21T03:32:15;17.40;93.50
31038;DHT22;17702;47.590;7.666;2022-08-21T03:34:40;17.30;93.30
31038;DHT22;17702;47.590;7.666;2022-08-21T03:37:08;17.40;93.30
31038;DHT22;17702;47.590;7.666;2022-08-21T03:39:35;17.40;93.80
31038;DHT22;17702;47.590;7.666;2022-08-21T03:42:00;17.30;94.00
31038;DHT22;17702;47.590;7.666;2022-08-21T03:44:27;17.40;93.40
31038;DHT22;17702;47.590;7.666;2022-08-21T03:46:55;17.40;93.30
31038;DHT22;17702;47.590;7.666;2022-08-21T03:49:21;17.40;93.60
31038;DHT22;17702;47.590;7.666;2022-08-21T03:51:46;17.30;93.70
31038;DHT22;17702;47.590;7.666;2022-08-21T03:54:12;17.20;93.80
31038;DHT22;17702;47.590;7.666;2022-08-21T03:56:37;17.20;93.50
31038;DHT22;17702;47.590;7.666;2022-08-21T03:59:05;17.20;93.40
31038;DHT22;17702;47.590;7.666;2022-08-21T04:01:30;17.20;94.00
31038;DHT22;17702;47.590;7.666;2022-08-21T04:03:56;17.20;93.90
31038;DHT22;17702;47.590;7.666;2022-08-21T04:06:22;17.20;93.60
31038;DHT22;17702;47.590;7.666;2022-08-21T04:08:47;17.20;93.90
31038;DHT22;17702;47.590;7.666;2022-08-21T04:11:13;17.10;93.80
31038;DHT22;17702;47.590;7.666;2022-08-21T04:13:40;17.10;93.60
31038;DHT22;17702;47.590;7.666;2022-08-21T04:16:07;17.20;93.40
31038;DHT22;17702;47.590;7.666;2022-08-21T04:18:32;17.20;93.20
31038;DHT22;17702;47.590;7.666;2022-08-21T04:20:59;17.20;93.10
31038;DHT22;17702;47.590;7.666;2022-08-21T04:23:25;17.10;92.80
31038;DHT22;17702;47.590;7.666;2022-08-21T04:25:54;17.10;92.70
31038;DHT22;17702;47.590;7.666;2022-08-21T04:28:22;17.10;93.40
31038;DHT22;17702;47.590;7.666;2022-08-21T04:30:48;17.00;93.30
31038;DHT22;17702;47.590;7.666;2022-08-21T04:33:15;16.90;93.60
31038;DHT22;17702;47.590;7.666;2022-08-21T04:35:41;17.00;93.60
31038;DHT22;17702;47.590;7.666;2022-08-21T04:38:08;17.10;93.20
31038;DHT22;17702;47.590;7.666;2022-08-21T04:40:33;17.10;93.40
31038;DHT22;17702;47.590;7.666;2022-08-21T04:43:06;17.00;93.00
31038;DHT22;17702;47.590;7.666;2022-08-21T04:45:36;17.00;93.30
31038;DHT22;17702;47.590;7.666;2022-08-21T04:48:04;17.00;92.80
31038;DHT22;17702;47.590;7.666;2022-08-21T04:53:34;17.00;93.60
31038;DHT22;17702;47.590;7.666;2022-08-21T04:56:07;17.00;93.60
31038;DHT22;17702;47.590;7.666;2022-08-21T04:58:34;16.90;93.30
31038;DHT22;17702;47.590;7.666;2022-08-21T05:01:02;16.90;93.90
31038;DHT22;17702;47.590;7.666;2022-08-21T05:03:29;16.90;93.80
31038;DHT22;17702;47.590;7.666;2022-08-21T05:05:57;16.90;93.60
31038;DHT22;17702;47.590;7.666;2022-08-21T05:08:25;16.90;93.60
31038;DHT22;17702;47.590;7.666;2022-08-21T05:10:53;16.90;93.70
31038;DHT22;17702;47.590;7.666;2022-08-21T05:13:19;16.80;94.00
31038;DHT22;17702;47.590;7.666;2022-08-21T05:15:45;16.90;94.00
31038;DHT22;17702;47.590;7.666;2022-08-21T05:18:11;16.80;94.10
31038;DHT22;17702;47.590;7.666;2022-08-21T05:20:37;16.80;93.80
31038;DHT22;17702;47.590;7.666;2022-08-21T05:23:11;16.80;94.00
31038;DHT22;17702;47.590;7.666;2022-08-21T05:25:37;16.90;93.30
31038;DHT22;17702;47.590;7.666;2022-08-21T05:28:03;16.90;93.90
31038;DHT22;17702;47.590;7.666;2022-08-21T05:30:29;16.90;93.90
31038;DHT22;17702;47.590;7.666;2022-08-21T05:32:59;16.80;94.00
31038;DHT22;17702;47.590;7.666;2022-08-21T05:35:26;16.70;93.90
31038;DHT22;17702;47.590;7.666;2022-08-21T05:37:52;16.90;93.80
31038;DHT22;17702;47.590;7.666;2022-08-21T05:40:18;17.00;93.90
31038;DHT22;17702;47.590;7.666;2022-08-21T05:42:44;17.00;93.60
31038;DHT22;17702;47.590;7.666;2022-08-21T05:45:09;16.90;93.60
31038;DHT22;17702;47.590;7.666;2022-08-21T05:47:35;17.00;94.00
31038;DHT22;17702;47.590;7.666;2022-08-21T05:50:01;16.90;93.80
31038;DHT22;17702;47.590;7.666;2022-08-21T05:52:27;16.90;93.90
31038;DHT22;17702;47.590;7.666;2022-08-21T05:54:53;17.00;93.90
31038;DHT22;17702;47.590;7.666;2022-08-21T05:57:21;17.00;93.80
31038;DHT22;17702;47.590;7.666;2022-08-21T05:59:48;17.10;94.00
31038;DHT22;17702;47.590;7.666;2022-08-21T06:02:13;17.10;93.80
31038;DHT22;17702;47.590;7.666;2022-08-21T06:04:40;17.10;93.90
31038;DHT22;17702;47.590;7.666;2022-08-21T06:07:06;17.20;93.70
31038;DHT22;17702;47.590;7.666;2022-08-21T06:09:32;17.30;94.00
31038;DHT22;17702;47.590;7.666;2022-08-21T06:12:02;17.30;94.00
31038;DHT22;17702;47.590;7.666;2022-08-21T06:17:06;17.30;94.10
31038;DHT22;17702;47.590;7.666;2022-08-21T06:19:31;17.40;94.40
31038;DHT22;17702;47.590;7.666;2022-08-21T06:21:57;17.40;94.10
31038;DHT22;17702;47.590;7.666;2022-08-21T06:24:23;17.50;94.40
31038;DHT22;17702;47.590;7.666;2022-08-21T06:26:49;17.60;94.40
31038;DHT22;17702;47.590;7.666;2022-08-21T06:29:14;17.60;94.30
31038;DHT22;17702;47.590;7.666;2022-08-21T06:31:45;17.70;94.00
31038;DHT22;17702;47.590;7.666;2022-08-21T06:34:11;17.80;94.00
31038;DHT22;17702;47.590;7.666;2022-08-21T06:36:37;17.80;94.30
31038;DHT22;17702;47.590;7.666;2022-08-21T06:39:03;17.90;94.20
31038;DHT22;17702;47.590;7.666;2022-08-21T06:41:29;18.10;94.00
31038;DHT22;17702;47.590;7.666;2022-08-21T06:43:55;18.20;94.20
31038;DHT22;17702;47.590;7.666;2022-08-21T06:46:25;18.40;93.80
31038;DHT22;17702;47.590;7.666;2022-08-21T06:48:51;18.60;93.30
31038;DHT22;17702;47.590;7.666;2022-08-21T06:51:17;18.70;93.10
31038;DHT22;17702;47.590;7.666;2022-08-21T06:53:42;18.70;92.70
31038;DHT22;17702;47.590;7.666;2022-08-21T06:56:08;18.80;92.70
31038;DHT22;17702;47.590;7.666;2022-08-21T06:58:34;18.90;92.80
31038;DHT22;17702;47.590;7.666;2022-08-21T07:00:59;18.90;93.10
31038;DHT22;17702;47.590;7.666;2022-08-21T07:03:35;18.90;92.60
31038;DHT22;17702;47.590;7.666;2022-08-21T07:06:01;18.90;92.30
31038;DHT22;17702;47.590;7.666;2022-08-21T07:08:28;19.00;92.20
31038;DHT22;17702;47.590;7.666;2022-08-21T07:10:57;19.00;92.20
31038;DHT22;17702;47.590;7.666;2022-08-21T07:13:23;18.90;92.10
31038;DHT22;17702;47.590;7.666;2022-08-21T07:15:49;18.90;92.50
31038;DHT22;17702;47.590;7.666;2022-08-21T07:18:15;19.00;92.60
31038;DHT22;17702;47.590;7.666;2022-08-21T07:20:41;19.00;92.20
31038;DHT22;17702;47.590;7.666;2022-08-21T07:23:12;19.10;91.90
31038;DHT22;17702;47.590;7.666;2022-08-21T07:25:41;19.10;92.40
31038;DHT22;17702;47.590;7.666;2022-08-21T07:28:07;19.10;92.20
31038;DHT22;17702;47.590;7.666;2022-08-21T07:30:32;19.10;91.70
31038;DHT22;17702;47.590;7.666;2022-08-21T07:32:58;19.20;92.10
31038;DHT22;17702;47.590;7.666;2022-08-21T07:35:24;19.20;92.60
31038;DHT22;17702;47.590;7.666;2022-08-21T07:37:50;19.30;92.20
31038;DHT22;17702;47.590;7.666;2022-08-21T07:40:16;19.50;91.80
31038;DHT22;17702;47.590;7.666;2022-08-21T07:42:44;19.60;90.70
31038;DHT22;17702;47.590;7.666;2022-08-21T07:45:12;19.80;91.00
31038;DHT22;17702;47.590;7.666;2022-08-21T07:47:38;19.90;91.10
31038;DHT22;17702;47.590;7.666;2022-08-21T07:50:05;20.20;90.80
31038;DHT22;17702;47.590;7.666;2022-08-21T07:52:31;20.40;90.80
31038;DHT22;17702;47.590;7.666;2022-08-21T07:54:58;20.60;90.00
31038;DHT22;17702;47.590;7.666;2022-08-21T07:57:23;20.80;89.70
31038;DHT22;17702;47.590;7.666;2022-08-21T07:59:49;21.00;88.30
31038;DHT22;17702;47.590;7.666;2022-08-21T08:02:23;21.20;87.50
31038;DHT22;17702;47.590;7.666;2022-08-21T08:04:48;21.30;86.40
31038;DHT22;17702;47.590;7.666;2022-08-21T08:07:14;21.40;87.30
31038;DHT22;17702;47.590;7.666;2022-08-21T08:09:40;21.60;87.30
31038;DHT22;17702;47.590;7.666;2022-08-21T08:12:06;21.70;87.90
31038;DHT22;17702;47.590;7.666;2022-08-21T08:14:31;22.00;86.30
31038;DHT22;17702;47.590;7.666;2022-08-21T08:16:57;22.10;84.60
31038;DHT22;17702;47.590;7.666;2022-08-21T08:19:23;22.20;84.90
31038;DHT22;17702;47.590;7.666;2022-08-21T08:21:48;22.30;86.10
31038;DHT22;17702;47.590;7.666;2022-08-21T08:24:14;22.40;83.20
31038;DHT22;17702;47.590;7.666;2022-08-21T08:26:40;22.60;84.30
31038;DHT22;17702;47.590;7.666;2022-08-21T08:29:05;22.70;82.40
31038;DHT22;17702;47.590;7.666;2022-08-21T08:31:32;22.70;83.00
31038;DHT22;17702;47.590;7.666;2022-08-21T08:33:59;22.90;84.20
31038;DHT22;17702;47.590;7.666;2022-08-21T08:36:33;23.00;82.50
31038;DHT22;17702;47.590;7.666;2022-08-21T08:38:59;23.10;81.60
31038;DHT22;17702;47.590;7.666;2022-08-21T08:41:26;23.10;80.70
31038;DHT22;17702;47.590;7.666;2022-08-21T08:43:54;23.30;82.40
31038;DHT22;17702;47.590;7.666;2022-08-21T08:46:29;23.40;83.00
31038;DHT22;17702;47.590;7.666;2022-08-21T08:49:01;23.70;82.30
31038;DHT22;17702;47.590;7.666;2022-08-21T08:54:19;24.10;79.40
31038;DHT22;17702;47.590;7.666;2022-08-21T08:56:47;24.30;82.00
31038;DHT22;17702;47.590;7.666;2022-08-21T08:59:24;24.40;77.00
31038;DHT22;17702;47.590;7.666;2022-08-21T09:01:51;24.40;77.10
31038;DHT22;17702;47.590;7.666;2022-08-21T09:04:24;24.40;79.20
31038;DHT22;17702;47.590;7.666;2022-08-21T09:07:12;24.40;75.50
31038;DHT22;17702;47.590;7.666;2022-08-21T09:12:33;24.40;77.60
31038;DHT22;17702;47.590;7.666;2022-08-21T09:18:25;24.40;76.80
31038;DHT22;17702;47.590;7.666;2022-08-21T09:26:20;24.20;75.30
31038;DHT22;17702;47.590;7.666;2022-08-21T09:28:53;24.10;76.80
31038;DHT22;17702;47.590;7.666;2022-08-21T09:31:34;24.40;77.80
31038;DHT22;17702;47.590;7.666;2022-08-21T09:34:08;24.80;77.10
31038;DHT22;17702;47.590;7.666;2022-08-21T09:36:44;25.10;74.50
31038;DHT22;17702;47.590;7.666;2022-08-21T09:39:12;25.40;73.60
31038;DHT22;17702;47.590;7.666;2022-08-21T09:41:39;25.60;73.00
31038;DHT22;17702;47.590;7.666;2022-08-21T09:44:07;25.90;71.30
31038;DHT22;17702;47.590;7.666;2022-08-21T09:46:33;26.00;72.60
31038;DHT22;17702;47.590;7.666;2022-08-21T09:49:03;26.20;68.10
31038;DHT22;17702;47.590;7.666;2022-08-21T09:51:30;26.30;66.30
31038;DHT22;17702;47.590;7.666;2022-08-21T10:01:52;26.60;61.80
31038;DHT22;17702;47.590;7.666;2022-08-21T10:04:26;26.70;63.50
31038;DHT22;17702;47.590;7.666;2022-08-21T10:06:52;26.80;63.00
31038;DHT22;17702;47.590;7.666;2022-08-21T10:09:19;26.80;61.40
31038;DHT22;17702;47.590;7.666;2022-08-21T10:12:19;26.90;64.00
31038;DHT22;17702;47.590;7.666;2022-08-21T10:15:17;27.00;61.00
31038;DHT22;17702;47.590;7.666;2022-08-21T10:17:56;27.00;61.00
31038;DHT22;17702;47.590;7.666;2022-08-21T10:20:44;27.20;63.10
31038;DHT22;17702;47.590;7.666;2022-08-21T10:23:24;27.30;61.50
31038;DHT22;17702;47.590;7.666;2022-08-21T10:26:05;27.40;61.50
31038;DHT22;17702;47.590;7.666;2022-08-21T10:31:24;27.60;58.50
31038;DHT22;17702;47.590;7.666;2022-08-21T10:36:38;26.90;61.40
31038;DHT22;17702;47.590;7.666;2022-08-21T10:39:17;26.60;60.60
31038;DHT22;17702;47.590;7.666;2022-08-21T10:44:32;26.40;64.90
31038;DHT22;17702;47.590;7.666;2022-08-21T10:49:41;26.50;64.80
31038;DHT22;17702;47.590;7.666;2022-08-21T10:55:11;26.10;63.70
31038;DHT22;17702;47.590;7.666;2022-08-21T10:58:01;25.90;62.30
31038;DHT22;17702;47.590;7.666;2022-08-21T11:03:17;25.70;63.20
31038;DHT22;17702;47.590;7.666;2022-08-21T11:05:48;25.90;62.70
31038;DHT22;17702;47.590;7.666;2022-08-21T11:10:50;26.30;63.80
31038;DHT22;17702;47.590;7.666;2022-08-21T11:13:38;26.50;63.90
31038;DHT22;17702;47.590;7.666;2022-08-21T11:29:54;27.40;59.00
31038;DHT22;17702;47.590;7.666;2022-08-21T11:35:18;27.60;58.00
31038;DHT22;17702;47.590;7.666;2022-08-21T11:38:34;27.70;58.70
31038;DHT22;17702;47.590;7.666;2022-08-21T11:43:55;27.90;58.50
31038;DHT22;17702;47.590;7.666;2022-08-21T11:47:02;27.90;59.80
31038;DHT22;17702;47.590;7.666;2022-08-21T11:52:20;28.20;58.10
31038;DHT22;17702;47.590;7.666;2022-08-21T11:54:55;28.30;59.70
31038;DHT22;17702;47.590;7.666;2022-08-21T11:57:35;28.30;55.60
31038;DHT22;17702;47.590;7.666;2022-08-21T12:02:37;27.90;55.30
31038;DHT22;17702;47.590;7.666;2022-08-21T12:05:06;27.60;60.00
31038;DHT22;17702;47.590;7.666;2022-08-21T12:07:41;27.30;58.30
31038;DHT22;17702;47.590;7.666;2022-08-21T12:10:12;27.00;58.70
31038;DHT22;17702;47.590;7.666;2022-08-21T12:12:41;27.00;60.00
31038;DHT22;17702;47.590;7.666;2022-08-21T12:20:44;27.40;54.70
31038;DHT22;17702;47.590;7.666;2022-08-21T12:24:00;27.50;51.20
31038;DHT22;17702;47.590;7.666;2022-08-21T12:29:21;27.70;52.50
31038;DHT22;17702;47.590;7.666;2022-08-21T12:34:47;28.10;56.00
31038;DHT22;17702;47.590;7.666;2022-08-21T12:42:41;28.30;57.90
31038;DHT22;17702;47.590;7.666;2022-08-21T12:45:37;28.20;58.00
31038;DHT22;17702;47.590;7.666;2022-08-21T12:53:46;27.70;57.40
31038;DHT22;17702;47.590;7.666;2022-08-21T12:56:16;27.70;58.20
31038;DHT22;17702;47.590;7.666;2022-08-21T12:58:48;27.90;55.40
31038;DHT22;17702;47.590;7.666;2022-08-21T13:01:35;28.00;57.20
31038;DHT22;17702;47.590;7.666;2022-08-21T13:04:13;28.10;55.50
31038;DHT22;17702;47.590;7.666;2022-08-21T13:06:42;28.10;52.30
31038;DHT22;17702;47.590;7.666;2022-08-21T13:09:12;28.20;52.00
31038;DHT22;17702;47.590;7.666;2022-08-21T13:11:40;28.30;56.00
31038;DHT22;17702;47.590;7.666;2022-08-21T13:14:14;28.30;54.10
31038;DHT22;17702;47.590;7.666;2022-08-21T13:16:41;28.30;54.80
31038;DHT22;17702;47.590;7.666;2022-08-21T13:19:11;28.40;53.10
31038;DHT22;17702;47.590;7.666;2022-08-21T13:21:42;28.50;53.60
31038;DHT22;17702;47.590;7.666;2022-08-21T13:26:47;28.60;54.90
31038;DHT22;17702;47.590;7.666;2022-08-21T13:29:16;28.60;54.30
31038;DHT22;17702;47.590;7.666;2022-08-21T13:31:52;28.70;53.30
31038;DHT22;17702;47.590;7.666;2022-08-21T13:34:21;28.60;49.60
31038;DHT22;17702;47.590;7.666;2022-08-21T13:36:47;28.60;49.00
31038;DHT22;17702;47.590;7.666;2022-08-21T13:39:17;28.60;51.50
31038;DHT22;17702;47.590;7.666;2022-08-21T13:41:46;28.60;51.00
31038;DHT22;17702;47.590;7.666;2022-08-21T13:44:22;28.70;52.50
31038;DHT22;17702;47.590;7.666;2022-08-21T13:46:52;28.70;52.30
31038;DHT22;17702;47.590;7.666;2022-08-21T13:49:30;28.70;51.30
31038;DHT22;17702;47.590;7.666;2022-08-21T13:51:56;28.70;50.60
31038;DHT22;17702;47.590;7.666;2022-08-21T13:54:28;28.70;47.40
31038;DHT22;17702;47.590;7.666;2022-08-21T13:56:55;28.70;51.10
31038;DHT22;17702;47.590;7.666;2022-08-21T13:59:29;28.70;48.10
31038;DHT22;17702;47.590;7.666;2022-08-21T14:01:58;28.60;48.00
31038;DHT22;17702;47.590;7.666;2022-08-21T14:04:50;28.50;49.20
31038;DHT22;17702;47.590;7.666;2022-08-21T14:07:18;28.40;46.20
31038;DHT22;17702;47.590;7.666;2022-08-21T14:09:46;28.30;47.80
31038;DHT22;17702;47.590;7.666;2022-08-21T14:12:19;28.30;48.80
31038;DHT22;17702;47.590;7.666;2022-08-21T14:14:49;28.30;48.80
31038;DHT22;17702;47.590;7.666;2022-08-21T14:17:34;28.30;46.70
31038;DHT22;17702;47.590;7.666;2022-08-21T14:20:02;28.30;47.80
31038;DHT22;17702;47.590;7.666;2022-08-21T14:25:13;28.40;46.70
31038;DHT22;17702;47.590;7.666;2022-08-21T14:28:23;28.40;49.10
31038;DHT22;17702;47.590;7.666;2022-08-21T14:30:50;28.40;47.50
31038;DHT22;17702;47.590;7.666;2022-08-21T14:33:34;28.30;47.70
31038;DHT22;17702;47.590;7.666;2022-08-21T14:36:00;28.30;49.30
31038;DHT22;17702;47.590;7.666;2022-08-21T14:38:27;28.30;47.60
31038;DHT22;17702;47.590;7.666;2022-08-21T14:40:59;28.30;46.30
31038;DHT22;17702;47.590;7.666;2022-08-21T14:43:27;28.20;49.70
31038;DHT22;17702;47.590;7.666;2022-08-21T14:45:53;28.20;48.60
31038;DHT22;17702;47.590;7.666;2022-08-21T14:48:19;28.10;46.30
31038;DHT22;17702;47.590;7.666;2022-08-21T14:50:45;28.10;48.90
31038;DHT22;17702;47.590;7.666;2022-08-21T14:53:11;28.10;47.20
31038;DHT22;17702;47.590;7.666;2022-08-21T14:55:38;28.00;48.40
31038;DHT22;17702;47.590;7.666;2022-08-21T14:58:23;28.00;47.90
31038;DHT22;17702;47.590;7.666;2022-08-21T15:00:50;28.00;47.10
31038;DHT22;17702;47.590;7.666;2022-08-21T15:03:18;28.00;46.30
31038;DHT22;17702;47.590;7.666;2022-08-21T15:05:44;27.90;47.90
31038;DHT22;17702;47.590;7.666;2022-08-21T15:08:10;27.80;47.20
31038;DHT22;17702;47.590;7.666;2022-08-21T15:10:36;27.80;47.40
31038;DHT22;17702;47.590;7.666;2022-08-21T15:13:02;27.70;47.90
31038;DHT22;17702;47.590;7.666;2022-08-21T15:15:36;27.70;49.00
31038;DHT22;17702;47.590;7.666;2022-08-21T15:18:04;27.60;46.00
31038;DHT22;17702;47.590;7.666;2022-08-21T15:20:30;27.50;45.90
31038;DHT22;17702;47.590;7.666;2022-08-21T15:22:55;27.40;47.10
31038;DHT22;17702;47.590;7.666;2022-08-21T15:25:21;27.40;46.30
31038;DHT22;17702;47.590;7.666;2022-08-21T15:27:47;27.40;48.70
31038;DHT22;17702;47.590;7.666;2022-08-21T15:30:12;27.40;47.00
31038;DHT22;17702;47.590;7.666;2022-08-21T15:32:38;27.30;46.00
31038;DHT22;17702;47.590;7.666;2022-08-21T15:35:05;27.20;46.80
31038;DHT22;17702;47.590;7.666;2022-08-21T15:37:30;27.10;48.80
31038;DHT22;17702;47.590;7.666;2022-08-21T15:39:56;27.10;49.10
31038;DHT22;17702;47.590;7.666;2022-08-21T15:42:22;27.00;51.10
31038;DHT22;17702;47.590;7.666;2022-08-21T15:44:49;27.00;47.80
31038;DHT22;17702;47.590;7.666;2022-08-21T15:47:19;27.00;46.70
31038;DHT22;17702;47.590;7.666;2022-08-21T15:49:45;27.00;47.20
31038;DHT22;17702;47.590;7.666;2022-08-21T15:52:12;27.00;46.30
31038;DHT22;17702;47.590;7.666;2022-08-21T15:54:38;27.00;47.20
31038;DHT22;17702;47.590;7.666;2022-08-21T15:57:04;27.00;46.60
31038;DHT22;17702;47.590;7.666;2022-08-21T15:59:32;27.00;46.20
31038;DHT22;17702;47.590;7.666;2022-08-21T16:02:03;26.90;47.80
31038;DHT22;17702;47.590;7.666;2022-08-21T16:04:28;26.80;47.90
31038;DHT22;17702;47.590;7.666;2022-08-21T16:06:54;26.70;48.60
31038;DHT22;17702;47.590;7.666;2022-08-21T16:09:21;26.60;47.20
31038;DHT22;17702;47.590;7.666;2022-08-21T16:11:47;26.60;47.70
31038;DHT22;17702;47.590;7.666;2022-08-21T16:14:14;26.50;48.90
31038;DHT22;17702;47.590;7.666;2022-08-21T16:16:42;26.40;47.80
31038;DHT22;17702;47.590;7.666;2022-08-21T16:19:10;26.40;47.40
31038;DHT22;17702;47.590;7.666;2022-08-21T16:21:36;26.30;47.70
31038;DHT22;17702;47.590;7.666;2022-08-21T16:24:01;26.30;47.30
31038;DHT22;17702;47.590;7.666;2022-08-21T16:26:28;26.20;48.80
31038;DHT22;17702;47.590;7.666;2022-08-21T16:28:55;26.10;51.20
31038;DHT22;17702;47.590;7.666;2022-08-21T16:31:23;26.00;51.20
31038;DHT22;17702;47.590;7.666;2022-08-21T16:33:52;26.00;49.60
31038;DHT22;17702;47.590;7.666;2022-08-21T16:36:18;25.90;49.50
31038;DHT22;17702;47.590;7.666;2022-08-21T16:38:44;25.90;50.90
31038;DHT22;17702;47.590;7.666;2022-08-21T16:41:11;25.80;48.60
31038;DHT22;17702;47.590;7.666;2022-08-21T16:43:39;25.80;48.50
31038;DHT22;17702;47.590;7.666;2022-08-21T16:46:08;25.80;50.00
31038;DHT22;17702;47.590;7.666;2022-08-21T16:48:34;25.80;48.80
31038;DHT22;17702;47.590;7.666;2022-08-21T16:51:00;25.70;50.10
31038;DHT22;17702;47.590;7.666;2022-08-21T16:53:25;25.70;49.60
31038;DHT22;17702;47.590;7.666;2022-08-21T16:55:52;25.70;50.40
31038;DHT22;17702;47.590;7.666;2022-08-21T16:58:30;25.60;52.90
31038;DHT22;17702;47.590;7.666;2022-08-21T17:00:57;25.50;52.40
31038;DHT22;17702;47.590;7.666;2022-08-21T17:03:31;25.40;52.50
31038;DHT22;17702;47.590;7.666;2022-08-21T17:05:59;25.30;52.70
31038;DHT22;17702;47.590;7.666;2022-08-21T17:08:25;25.30;52.30
31038;DHT22;17702;47.590;7.666;2022-08-21T17:10:52;25.20;52.60
31038;DHT22;17702;47.590;7.666;2022-08-21T17:13:19;25.10;54.50
31038;DHT22;17702;47.590;7.666;2022-08-21T17:15:45;25.00;54.70
31038;DHT22;17702;47.590;7.666;2022-08-21T17:18:14;24.90;56.00
31038;DHT22;17702;47.590;7.666;2022-08-21T17:20:41;24.80;58.70
31038;DHT22;17702;47.590;7.666;2022-08-21T17:23:07;24.80;62.20